createdAt,value
2018-12-04T00:08:37.343Z,83.40
2018-12-04T00:18:39.800Z,83.90
2018-12-04T00:28:42.242Z,83.70
2018-12-04T00:38:44.732Z,83.30
2018-12-04T00:48:47.182Z,82.90
2018-12-04T00:58:49.682Z,83.20
2018-12-04T01:08:52.825Z,83.30
2018-12-04T01:18:55.275Z,83.10
2018-12-04T01:28:57.769Z,83.20
2018-12-04T01:39:00.226Z,83.30
2018-12-04T01:49:02.719Z,83.30
2018-12-04T01:59:05.175Z,82.60
2018-12-04T02:09:07.667Z,82.40
2018-12-04T02:19:10.145Z,81.70
2018-12-04T02:29:12.608Z,81.80
2018-12-04T02:39:15.143Z,82.30
2018-12-04T02:49:17.615Z,80.90
2018-12-04T02:59:20.061Z,80.70
2018-12-04T03:09:22.613Z,80.20
2018-12-04T03:19:25.073Z,79.60
2018-12-04T03:29:27.523Z,78.80
2018-12-04T03:39:29.988Z,78.60
2018-12-04T03:49:32.447Z,78.10
2018-12-04T03:59:34.909Z,77.80
2018-12-04T04:09:37.426Z,76.90
2018-12-04T04:19:39.899Z,76.10
2018-12-04T04:29:42.387Z,75.50
2018-12-04T04:39:44.872Z,74.70
2018-12-04T04:49:47.345Z,74.40
2018-12-04T04:59:49.835Z,74.10
2018-12-04T05:09:52.297Z,73.80
2018-12-04T05:19:54.851Z,74.20
2018-12-04T05:29:57.304Z,74.20
2018-12-04T05:39:59.769Z,74.30
2018-12-04T05:50:02.295Z,79.00
2018-12-04T06:00:07.445Z,79.40
2018-12-04T06:10:09.906Z,78.50
2018-12-04T06:20:12.402Z,77.50
2018-12-04T06:30:14.940Z,76.50
2018-12-04T06:40:17.399Z,76.30
2018-12-04T06:50:20.063Z,76.00
2018-12-04T07:00:22.608Z,75.90
2018-12-04T07:10:25.203Z,74.80
2018-12-04T07:20:27.656Z,74.10
2018-12-04T07:30:30.117Z,72.00
2018-12-04T07:40:32.806Z,72.70
2018-12-04T07:50:35.254Z,71.80
2018-12-04T08:00:37.720Z,70.30
2018-12-04T08:10:40.168Z,70.80
2018-12-04T08:20:42.665Z,71.60
2018-12-04T08:30:45.111Z,71.40
2018-12-04T08:40:47.588Z,71.50
2018-12-04T08:50:50.047Z,71.60
2018-12-04T09:00:52.507Z,71.50
2018-12-04T09:10:55.087Z,71.10
2018-12-04T09:20:57.569Z,70.10
2018-12-04T09:31:00.235Z,69.50
2018-12-04T09:41:02.717Z,68.90
2018-12-04T09:51:05.219Z,69.70
2018-12-04T10:01:07.681Z,69.40
2018-12-04T10:11:10.372Z,69.20
2018-12-04T10:21:12.859Z,69.10
2018-12-04T10:31:15.322Z,68.40
2018-12-04T10:41:17.889Z,67.70
2018-12-04T10:51:20.423Z,67.20
2018-12-04T11:01:24.832Z,67.00
2018-12-04T11:11:27.286Z,67.00
2018-12-04T11:21:29.786Z,67.00
2018-12-04T11:31:32.243Z,66.50
2018-12-04T11:41:34.743Z,65.20
2018-12-04T11:51:37.209Z,64.70
2018-12-04T12:01:39.745Z,63.70
2018-12-04T12:11:42.342Z,61.20
2018-12-04T12:21:44.894Z,60.00
2018-12-04T12:31:47.347Z,60.40
2018-12-04T12:41:49.827Z,59.70
2018-12-04T12:51:52.375Z,59.10
2018-12-04T13:01:54.841Z,58.80
2018-12-04T13:11:57.326Z,58.10
2018-12-04T13:21:59.782Z,57.10
2018-12-04T13:32:02.510Z,56.50
2018-12-04T13:42:05.254Z,56.20
2018-12-04T13:52:07.934Z,56.70
2018-12-04T14:02:10.560Z,56.10
2018-12-04T14:12:13.116Z,56.00
2018-12-04T14:22:16.266Z,56.10
2018-12-04T14:32:19.163Z,55.30
2018-12-04T14:42:21.625Z,56.90
2018-12-04T14:52:24.125Z,58.80
2018-12-04T15:02:26.567Z,59.90
2018-12-04T15:12:29.080Z,60.50
2018-12-04T15:22:31.598Z,60.80
2018-12-04T15:32:34.314Z,61.70
2018-12-04T15:42:37.100Z,62.00
2018-12-04T15:52:39.843Z,62.30
2018-12-04T16:02:42.439Z,63.10
2018-12-04T16:12:44.912Z,63.40
2018-12-04T16:22:47.383Z,64.00
2018-12-04T16:32:49.855Z,64.60
2018-12-04T16:42:52.499Z,65.40
2018-12-04T16:52:54.999Z,66.40
2018-12-04T17:02:57.464Z,66.70
2018-12-04T17:13:00.083Z,66.70
2018-12-04T17:23:02.539Z,67.50
2018-12-04T17:33:05.048Z,68.50
2018-12-04T17:43:07.798Z,69.40
2018-12-04T17:53:10.383Z,69.60
2018-12-04T18:03:12.868Z,70.20
2018-12-04T18:13:15.535Z,70.80
2018-12-04T18:23:18.003Z,71.30
2018-12-04T18:33:20.662Z,71.50
2018-12-04T18:43:23.123Z,71.60
2018-12-04T18:53:25.584Z,71.60
2018-12-04T19:03:28.039Z,71.90
2018-12-04T19:13:30.499Z,72.00
2018-12-04T19:23:33.174Z,72.10
2018-12-04T19:33:35.847Z,72.50
2018-12-04T19:43:38.305Z,72.20
2018-12-04T19:53:41.027Z,72.40
2018-12-04T20:03:43.664Z,72.70
2018-12-04T20:13:46.219Z,72.20
2018-12-04T20:23:48.937Z,72.90
2018-12-04T20:33:51.745Z,72.20
2018-12-04T20:43:54.195Z,72.90
2018-12-04T20:53:56.812Z,71.90
2018-12-04T21:03:59.460Z,72.70
2018-12-04T21:14:03.125Z,72.10
2018-12-04T21:24:05.610Z,72.50
2018-12-04T21:34:13.669Z,73.10
2018-12-04T21:44:21.811Z,72.60
2018-12-04T21:54:24.529Z,73.10
2018-12-04T22:04:26.972Z,72.90
2018-12-04T22:14:29.635Z,73.00
2018-12-04T22:24:32.136Z,72.80
2018-12-04T22:34:34.662Z,72.30
2018-12-04T22:44:37.291Z,72.60
2018-12-04T22:54:39.939Z,72.60
2018-12-04T23:04:42.442Z,72.30
2018-12-04T23:14:44.902Z,72.60
2018-12-04T23:24:47.591Z,71.60
2018-12-04T23:34:50.324Z,72.30
2018-12-04T23:44:53.055Z,73.40
2018-12-04T23:54:55.789Z,72.60
